Time;durP1;ratioP1;P1;durP2;ratioP2;P2;SDS_P1;SDS_P2;PMS_P1;PMS_P2;Temp;Humidity;BMP_temperature;BMP_pressure;BME280_temperature;BME280_humidity;BME280_pressure;Samples;Min_cycle;Max_cycle;Signal;HPM_P1;HPM_P2
2021/09/23 00:01:12;;;;;;;8.10;5.28;;;10.70;72.90;;;;;;4978958;28;20177;-68
2021/09/23 00:06:04;;;;;;;6.40;4.95;;;10.70;73.00;;;;;;4979354;28;20737;-68
2021/09/23 00:08:30;;;;;;;7.13;5.07;;;10.80;73.20;;;;;;4980022;28;20031;-69
2021/09/23 00:10:56;;;;;;;7.85;5.32;;;10.80;73.00;;;;;;4981058;28;20038;-68
2021/09/23 00:13:25;;;;;;;6.82;4.97;;;10.70;72.80;;;;;;4979469;28;20053;-69
2021/09/23 00:15:51;;;;;;;7.68;5.60;;;10.70;72.60;;;;;;4980434;28;20049;-68
2021/09/23 00:18:18;;;;;;;7.55;5.38;;;10.70;72.70;;;;;;4977798;28;20494;-68
2021/09/23 00:20:47;;;;;;;10.52;6.63;;;10.60;72.80;;;;;;4976810;28;20061;-68
2021/09/23 00:23:14;;;;;;;7.93;6.13;;;10.60;73.40;;;;;;4978907;28;20616;-69
2021/09/23 00:25:40;;;;;;;8.70;6.72;;;10.60;73.90;;;;;;4978064;28;20045;-68
2021/09/23 00:28:07;;;;;;;11.45;7.28;;;10.50;74.20;;;;;;4978831;28;20413;-68
2021/09/23 00:30:34;;;;;;;9.35;6.70;;;10.50;74.90;;;;;;4975911;28;20046;-68
2021/09/23 00:33:00;;;;;;;8.70;6.20;;;10.50;75.30;;;;;;4978499;28;20051;-69
2021/09/23 00:35:25;;;;;;;10.52;6.88;;;10.50;75.40;;;;;;4978949;28;20027;-68
2021/09/23 00:37:51;;;;;;;8.60;6.63;;;10.50;75.60;;;;;;4979056;28;20026;-68
2021/09/23 00:40:17;;;;;;;9.75;6.68;;;10.60;75.80;;;;;;4976238;28;20116;-68
2021/09/23 00:42:47;;;;;;;9.07;6.75;;;10.60;75.80;;;;;;4980026;28;20034;-69
2021/09/23 00:45:13;;;;;;;8.85;6.28;;;10.60;75.90;;;;;;4980040;28;20039;-69
2021/09/23 00:47:39;;;;;;;8.68;6.70;;;10.70;76.80;;;;;;4980907;28;20088;-69
2021/09/23 00:50:07;;;;;;;8.13;6.95;;;10.70;75.90;;;;;;4978101;28;20042;-68
2021/09/23 00:52:34;;;;;;;10.38;6.88;;;10.70;76.10;;;;;;4979098;28;20045;-70
2021/09/23 00:55:00;;;;;;;10.07;6.47;;;10.80;76.10;;;;;;4982328;28;20110;-68
2021/09/23 00:57:26;;;;;;;9.32;6.95;;;10.80;76.10;;;;;;4983332;28;20126;-68
2021/09/23 00:59:53;;;;;;;15.20;6.88;;;10.80;76.20;;;;;;4982251;28;20042;-68
2021/09/23 01:02:19;;;;;;;8.18;6.53;;;10.80;76.30;;;;;;4984017;28;20102;-69
2021/09/23 01:04:45;;;;;;;8.63;6.55;;;10.90;76.30;;;;;;4982490;28;20041;-68
2021/09/23 01:07:13;;;;;;;9.43;6.47;;;10.90;76.50;;;;;;4982356;28;20039;-68
2021/09/23 01:09:42;;;;;;;9.50;6.93;;;10.90;76.40;;;;;;4983643;28;20035;-67
2021/09/23 01:12:08;;;;;;;10.07;7.00;;;10.90;76.50;;;;;;4981158;28;20073;-68
2021/09/23 01:14:33;;;;;;;7.22;6.10;;;10.90;76.30;;;;;;4980013;28;20514;-68
2021/09/23 01:16:59;;;;;;;9.32;7.05;;;10.90;76.40;;;;;;4982957;28;20030;-68
2021/09/23 01:19:25;;;;;;;8.32;7.00;;;10.90;76.40;;;;;;4981847;28;20023;-68
2021/09/23 01:21:51;;;;;;;8.95;6.72;;;11.00;76.50;;;;;;4980622;28;20765;-68
2021/09/23 01:24:16;;;;;;;7.57;6.25;;;11.00;76.30;;;;;;4981811;28;20034;-68
2021/09/23 01:26:48;;;;;;;10.70;6.50;;;11.00;76.10;;;;;;4980058;28;20116;-68
2021/09/23 01:29:14;;;;;;;8.35;6.25;;;11.00;76.00;;;;;;4982808;28;20035;-68
2021/09/23 01:31:39;;;;;;;8.75;6.13;;;11.00;76.50;;;;;;4984269;28;20532;-67
2021/09/23 01:34:05;;;;;;;8.25;6.07;;;11.00;75.40;;;;;;4981427;28;20092;-68
2021/09/23 01:36:31;;;;;;;8.25;5.88;;;11.00;75.20;;;;;;4980306;28;20501;-69
2021/09/23 01:38:56;;;;;;;8.50;6.15;;;11.00;74.90;;;;;;4981552;28;20110;-69
2021/09/23 01:41:22;;;;;;;7.65;6.32;;;11.00;74.70;;;;;;4980689;28;20239;-68
2021/09/23 01:43:48;;;;;;;8.13;5.72;;;11.00;74.30;;;;;;4981766;28;20065;-68
2021/09/23 01:46:13;;;;;;;6.97;6.13;;;10.90;74.10;;;;;;4982130;28;20498;-66
2021/09/23 01:48:39;;;;;;;8.25;6.07;;;10.90;74.20;;;;;;4981011;28;20048;-68
2021/09/23 01:51:04;;;;;;;8.18;6.50;;;10.90;74.20;;;;;;4981787;28;20128;-67
2021/09/23 01:53:30;;;;;;;11.23;7.75;;;10.90;74.00;;;;;;4980657;28;20030;-68
2021/09/23 01:55:56;;;;;;;12.48;7.63;;;10.80;74.10;;;;;;4982723;28;20508;-68
2021/09/23 01:58:21;;;;;;;10.65;8.20;;;10.80;74.50;;;;;;4981542;28;20030;-68
2021/09/23 02:00:47;;;;;;;9.30;7.30;;;10.70;74.60;;;;;;4981936;28;20041;-69
2021/09/23 02:03:12;;;;;;;10.07;7.43;;;10.70;74.70;;;;;;4980995;28;20043;-68
2021/09/23 02:05:39;;;;;;;10.48;8.10;;;10.70;74.80;;;;;;4979929;28;20088;-69
2021/09/23 02:08:05;;;;;;;10.73;7.75;;;10.70;75.10;;;;;;4980350;28;20069;-67
2021/09/23 02:10:31;;;;;;;11.23;8.35;;;10.60;75.10;;;;;;4980840;28;20057;-68
2021/09/23 02:12:57;;;;;;;9.40;7.55;;;10.60;75.10;;;;;;4980217;28;20042;-67
2021/09/23 02:15:23;;;;;;;10.60;7.68;;;10.60;75.60;;;;;;4982298;28;20077;-68
2021/09/23 02:17:48;;;;;;;12.90;8.60;;;10.70;75.90;;;;;;4980906;28;20455;-69
2021/09/23 02:20:14;;;;;;;12.90;8.23;;;10.70;76.00;;;;;;4980507;28;20038;-68
2021/09/23 02:22:39;;;;;;;11.75;8.15;;;10.70;76.10;;;;;;4981325;28;20050;-67
2021/09/23 02:25:06;;;;;;;10.75;8.20;;;10.70;76.10;;;;;;4977744;28;20026;-68
2021/09/23 02:27:31;;;;;;;11.10;8.90;;;10.70;76.30;;;;;;4977811;28;20027;-69
2021/09/23 02:29:57;;;;;;;15.55;9.55;;;10.60;76.70;;;;;;4980619;28;20038;-68
2021/09/23 02:32:22;;;;;;;10.52;8.27;;;10.60;77.00;;;;;;4980537;28;20429;-69
2021/09/23 02:34:48;;;;;;;12.32;7.82;;;10.50;77.10;;;;;;4980378;28;20046;-67
2021/09/23 02:37:14;;;;;;;12.43;9.10;;;10.40;77.20;;;;;;4981470;28;20043;-68
2021/09/23 02:39:39;;;;;;;12.55;8.88;;;10.40;77.60;;;;;;4984923;28;20034;-67
2021/09/23 02:42:05;;;;;;;10.70;8.43;;;10.40;77.70;;;;;;4979994;28;20053;-67
2021/09/23 02:44:31;;;;;;;10.93;8.02;;;10.40;77.50;;;;;;4981489;28;20652;-67
2021/09/23 02:46:56;;;;;;;10.05;7.40;;;10.30;77.30;;;;;;4981612;28;20114;-68
2021/09/23 02:49:22;;;;;;;10.98;7.85;;;10.30;77.20;;;;;;4978984;28;20086;-68
2021/09/23 02:51:48;;;;;;;9.65;7.43;;;10.30;77.20;;;;;;4980525;28;20023;-68
2021/09/23 02:54:13;;;;;;;9.93;7.28;;;10.30;77.10;;;;;;4979938;28;20420;-67
2021/09/23 02:56:39;;;;;;;10.90;7.90;;;10.30;76.50;;;;;;4978711;28;20022;-68
2021/09/23 02:59:04;;;;;;;13.27;8.02;;;10.30;76.30;;;;;;4984453;28;20041;-69
2021/09/23 03:01:30;;;;;;;11.60;7.82;;;10.20;76.10;;;;;;5002905;28;20034;-68
2021/09/23 03:03:56;;;;;;;10.32;7.63;;;10.10;76.00;;;;;;4997735;28;20054;-68
2021/09/23 03:06:21;;;;;;;10.52;8.20;;;10.10;76.00;;;;;;4999298;28;20041;-68
2021/09/23 03:08:47;;;;;;;10.63;7.22;;;10.00;76.00;;;;;;5000766;28;20034;-67
2021/09/23 03:11:13;;;;;;;11.10;7.95;;;9.90;76.30;;;;;;4999842;28;20060;-67
2021/09/23 03:13:38;;;;;;;11.70;8.30;;;9.80;76.30;;;;;;4996238;28;21186;-69
2021/09/23 03:16:04;;;;;;;10.35;7.57;;;9.70;76.60;;;;;;4997682;28;20562;-67
2021/09/23 03:18:30;;;;;;;9.27;7.38;;;9.70;76.80;;;;;;4996663;28;20026;-68
2021/09/23 03:20:56;;;;;;;10.85;7.97;;;9.70;76.80;;;;;;4997312;28;20415;-68
2021/09/23 03:23:22;;;;;;;12.88;7.93;;;9.70;76.80;;;;;;4998184;28;20042;-68
2021/09/23 03:25:50;;;;;;;11.35;7.68;;;9.70;76.60;;;;;;4994839;28;20188;-67
2021/09/23 03:28:15;;;;;;;10.63;8.32;;;9.80;76.50;;;;;;5013590;28;20041;-67
2021/09/23 03:30:43;;;;;;;9.45;7.35;;;9.70;76.20;;;;;;4996683;28;20535;-68
2021/09/23 03:33:08;;;;;;;10.32;7.88;;;9.70;76.00;;;;;;4997371;28;20045;-68
2021/09/23 03:35:36;;;;;;;13.00;8.70;;;9.70;75.80;;;;;;4998149;28;20223;-67
2021/09/23 03:38:03;;;;;;;9.90;7.32;;;9.70;75.80;;;;;;4995942;28;20033;-67
2021/09/23 03:40:29;;;;;;;9.55;7.68;;;9.70;75.80;;;;;;4996382;28;20444;-68
2021/09/23 03:42:54;;;;;;;11.88;8.00;;;9.60;75.70;;;;;;4997535;28;20038;-67
2021/09/23 03:45:22;;;;;;;9.93;7.70;;;9.60;75.60;;;;;;4997285;28;20532;-67
2021/09/23 03:47:48;;;;;;;9.93;7.57;;;9.60;75.40;;;;;;4998272;28;20030;-67
2021/09/23 03:50:14;;;;;;;9.65;8.00;;;9.60;75.60;;;;;;4998050;28;20507;-64
2021/09/23 03:52:40;;;;;;;12.80;8.65;;;9.60;75.60;;;;;;4994776;28;20702;-67
2021/09/23 03:55:06;;;;;;;9.60;7.70;;;9.50;75.40;;;;;;4997289;28;20085;-67
2021/09/23 03:57:32;;;;;;;10.07;7.72;;;9.50;75.30;;;;;;4997945;28;20029;-68
2021/09/23 03:59:57;;;;;;;12.07;7.75;;;9.50;75.40;;;;;;4998185;28;20410;-67
2021/09/23 04:02:23;;;;;;;10.23;8.00;;;9.50;76.50;;;;;;4998489;28;20022;-67
2021/09/23 04:04:49;;;;;;;13.77;8.07;;;9.50;75.60;;;;;;4997810;28;20081;-67
2021/09/23 04:07:14;;;;;;;11.77;8.88;;;9.40;75.70;;;;;;4999269;28;20030;-67
2021/09/23 04:09:40;;;;;;;13.02;8.30;;;9.40;75.60;;;;;;4999280;28;20097;-68
2021/09/23 04:12:06;;;;;;;15.50;9.35;;;9.40;76.50;;;;;;4998136;28;20034;-67
2021/09/23 04:14:32;;;;;;;26.10;9.98;;;9.40;75.60;;;;;;4996960;28;20026;-65
2021/09/23 04:16:58;;;;;;;19.83;10.80;;;9.30;75.80;;;;;;4997625;28;20034;-67
2021/09/23 04:19:23;;;;;;;15.02;9.65;;;9.20;76.10;;;;;;4996502;28;20052;-68
2021/09/23 04:21:49;;;;;;;33.10;11.57;;;9.20;76.50;;;;;;4996697;28;20053;-67
2021/09/23 04:24:16;;;;;;;64.05;12.13;;;9.10;76.80;;;;;;4998153;28;20061;-65
2021/09/23 04:26:42;;;;;;;45.33;12.18;;;9.10;77.30;;;;;;4999132;28;20113;-67
2021/09/23 04:29:08;;;;;;;58.17;12.60;;;9.10;77.80;;;;;;4999344;28;20444;-67
2021/09/23 04:31:34;;;;;;;69.70;11.48;;;9.20;78.00;;;;;;4998396;28;20089;-66
2021/09/23 04:34:00;;;;;;;102.95;10.68;;;9.20;78.20;;;;;;4998080;28;20117;-67
2021/09/23 04:36:26;;;;;;;102.10;11.70;;;9.20;78.90;;;;;;4997658;28;20034;-68
2021/09/23 04:38:51;;;;;;;44.50;10.85;;;9.20;77.90;;;;;;4999573;28;20088;-67
2021/09/23 04:41:17;;;;;;;49.28;11.10;;;9.20;78.00;;;;;;4999310;28;20043;-67
2021/09/23 04:43:43;;;;;;;19.10;11.13;;;9.20;78.30;;;;;;4998798;28;20038;-67
2021/09/23 04:46:09;;;;;;;18.50;10.73;;;9.20;78.60;;;;;;4997945;28;20454;-67
2021/09/23 04:48:35;;;;;;;50.00;10.65;;;9.20;78.70;;;;;;4998267;28;20130;-67
2021/09/23 04:51:01;;;;;;;58.28;10.95;;;9.30;78.90;;;;;;5013791;28;20040;-67
2021/09/23 04:53:27;;;;;;;19.15;9.35;;;9.30;79.00;;;;;;4997584;28;20034;-68
2021/09/23 04:55:53;;;;;;;20.50;9.95;;;9.40;79.10;;;;;;4996944;28;20513;-65
2021/09/23 04:58:19;;;;;;;62.08;12.30;;;9.40;79.10;;;;;;4997803;28;20038;-67
2021/09/23 05:00:44;;;;;;;27.05;11.85;;;9.40;79.30;;;;;;4998255;28;20416;-68
2021/09/23 05:03:18;;;;;;;38.58;11.02;;;9.50;79.30;;;;;;4998925;28;20046;-67
2021/09/23 05:05:44;;;;;;;33.08;12.00;;;9.50;79.40;;;;;;4998688;28;20084;-67
2021/09/23 05:08:09;;;;;;;89.97;11.38;;;9.50;79.60;;;;;;4998282;28;20034;-69
2021/09/23 05:10:35;;;;;;;169.20;11.10;;;9.60;79.70;;;;;;4998011;28;20045;-67
2021/09/23 05:13:02;;;;;;;87.68;8.23;;;9.60;79.80;;;;;;4997105;28;20066;-67
2021/09/23 05:15:28;;;;;;;146.63;9.50;;;9.70;79.90;;;;;;4997714;28;20489;-69
2021/09/23 05:17:54;;;;;;;18.75;7.45;;;9.70;80.00;;;;;;4997349;28;20066;-68
2021/09/23 05:20:20;;;;;;;23.60;9.43;;;9.70;80.10;;;;;;4997029;28;20480;-67
2021/09/23 05:22:45;;;;;;;28.65;8.80;;;9.80;80.30;;;;;;5002828;28;20034;-67
2021/09/23 05:25:11;;;;;;;17.38;8.50;;;9.80;80.40;;;;;;4996464;28;20037;-67
2021/09/23 05:27:38;;;;;;;12.30;8.63;;;9.90;80.60;;;;;;4999931;28;20448;-67
2021/09/23 05:30:07;;;;;;;23.90;9.45;;;9.90;80.60;;;;;;4998725;28;20113;-67
2021/09/23 05:32:32;;;;;;;37.88;8.20;;;10.00;80.70;;;;;;4997091;28;20125;-67
2021/09/23 05:34:58;;;;;;;13.73;8.85;;;10.10;80.60;;;;;;4999018;28;20298;-67
2021/09/23 05:37:23;;;;;;;19.85;9.30;;;10.10;80.50;;;;;;4997669;28;20125;-67
2021/09/23 05:39:49;;;;;;;10.68;8.07;;;10.10;80.30;;;;;;5003105;28;20040;-67
2021/09/23 05:42:15;;;;;;;200.45;10.48;;;10.20;80.30;;;;;;5001938;28;20585;-68
2021/09/23 05:44:40;;;;;;;77.10;8.18;;;10.20;80.10;;;;;;5001168;28;20034;-67
2021/09/23 05:47:06;;;;;;;38.85;7.25;;;10.20;79.70;;;;;;5001796;28;20501;-67
2021/09/23 05:49:32;;;;;;;58.70;8.60;;;10.20;79.70;;;;;;5001497;28;20030;-67
2021/09/23 05:51:59;;;;;;;24.15;7.63;;;10.30;79.90;;;;;;5000969;28;20484;-68
2021/09/23 05:54:25;;;;;;;27.52;8.20;;;10.30;80.00;;;;;;4999539;28;20034;-67
2021/09/23 05:56:51;;;;;;;26.27;9.65;;;10.30;80.10;;;;;;5001611;28;20030;-67
2021/09/23 05:59:18;;;;;;;61.97;10.07;;;10.40;80.10;;;;;;5001603;28;20084;-67
2021/09/23 06:01:44;;;;;;;17.80;8.35;;;10.40;80.10;;;;;;5001559;28;20034;-67
2021/09/23 06:04:09;;;;;;;21.15;10.02;;;10.40;80.00;;;;;;5000967;28;20045;-66
2021/09/23 06:06:35;;;;;;;22.90;9.77;;;10.50;80.00;;;;;;5000941;28;20042;-66
2021/09/23 06:09:03;;;;;;;30.75;10.38;;;10.50;80.10;;;;;;5001294;28;20517;-68
2021/09/23 06:11:30;;;;;;;31.80;9.55;;;10.50;80.10;;;;;;5001175;28;20386;-67
2021/09/23 06:13:55;;;;;;;29.35;9.77;;;10.60;80.10;;;;;;5000746;28;20038;-67
2021/09/23 06:16:21;;;;;;;14.25;10.88;;;10.60;80.10;;;;;;5000084;28;20041;-67
2021/09/23 06:18:47;;;;;;;24.50;9.57;;;10.60;80.00;;;;;;5000139;28;20520;-64
2021/09/23 06:21:13;;;;;;;15.07;9.65;;;10.70;80.00;;;;;;5000499;28;20022;-67
2021/09/23 06:23:45;;;;;;;47.65;9.70;;;10.70;80.00;;;;;;5001061;28;20042;-67
2021/09/23 06:26:10;;;;;;;48.70;9.13;;;10.70;79.80;;;;;;5000993;28;20528;-66
2021/09/23 06:28:36;;;;;;;105.65;10.05;;;10.80;79.50;;;;;;4998989;28;20069;-67
2021/09/23 06:31:02;;;;;;;15.25;8.88;;;10.80;79.30;;;;;;5000202;28;20034;-66
2021/09/23 06:33:28;;;;;;;54.60;10.18;;;10.70;79.30;;;;;;5000533;28;20064;-67
2021/09/23 06:35:53;;;;;;;22.42;9.98;;;10.70;79.60;;;;;;5001156;28;20053;-67
2021/09/23 06:38:19;;;;;;;12.73;9.73;;;10.70;80.00;;;;;;5001061;28;20451;-68
2021/09/23 06:40:45;;;;;;;24.00;10.15;;;10.70;80.10;;;;;;5000698;28;20041;-67
2021/09/23 06:43:10;;;;;;;19.75;9.73;;;10.70;80.20;;;;;;4999844;28;20030;-66
2021/09/23 06:45:36;;;;;;;16.75;9.40;;;10.80;80.30;;;;;;4999577;28;20046;-67
2021/09/23 06:48:02;;;;;;;21.42;10.43;;;10.80;80.40;;;;;;4999718;28;20516;-68
2021/09/23 06:50:28;;;;;;;16.33;9.27;;;10.80;80.30;;;;;;4998643;28;20062;-66
2021/09/23 06:52:53;;;;;;;21.48;9.43;;;10.90;80.30;;;;;;4999785;28;20124;-67
2021/09/23 06:55:19;;;;;;;16.15;9.55;;;10.90;80.30;;;;;;5000810;28;20141;-67
2021/09/23 06:57:46;;;;;;;19.20;8.65;;;10.90;80.20;;;;;;5000532;28;20030;-68
2021/09/23 07:00:12;;;;;;;10.07;8.95;;;11.00;81.00;;;;;;5000835;28;20088;-67
2021/09/23 07:02:38;;;;;;;12.63;9.32;;;11.00;80.10;;;;;;4994130;28;20104;-68
2021/09/23 07:05:04;;;;;;;14.00;9.60;;;11.00;81.00;;;;;;5000563;28;20493;-68
2021/09/23 07:07:30;;;;;;;32.38;9.60;;;11.00;80.30;;;;;;5000703;28;20039;-66
2021/09/23 07:09:56;;;;;;;11.88;9.13;;;11.10;80.50;;;;;;5005121;28;20148;-68
2021/09/23 07:12:22;;;;;;;14.20;8.80;;;11.10;80.60;;;;;;5014992;28;20489;-67
2021/09/23 07:14:48;;;;;;;14.32;9.27;;;11.20;80.80;;;;;;4999929;28;20049;-68
2021/09/23 07:17:13;;;;;;;19.48;9.73;;;11.20;80.60;;;;;;5000754;28;20042;-67
2021/09/23 07:19:39;;;;;;;85.38;9.48;;;11.30;80.60;;;;;;5000292;28;20045;-69
2021/09/23 07:22:05;;;;;;;10.90;8.25;;;11.30;80.40;;;;;;5000417;28;20038;-68
2021/09/23 07:24:31;;;;;;;32.20;9.23;;;11.40;80.20;;;;;;5000080;28;20421;-67
2021/09/23 07:26:57;;;;;;;16.38;8.75;;;11.40;80.30;;;;;;5000243;28;20052;-67
2021/09/23 07:29:24;;;;;;;20.25;9.18;;;11.40;80.50;;;;;;5000088;28;20540;-67
2021/09/23 07:31:50;;;;;;;16.08;8.93;;;11.40;80.50;;;;;;5000548;28;20037;-67
2021/09/23 07:34:16;;;;;;;17.92;9.32;;;11.50;80.30;;;;;;5000368;28;20034;-68
2021/09/23 07:36:41;;;;;;;12.98;9.75;;;11.60;80.40;;;;;;4998888;28;20097;-67
2021/09/23 07:39:08;;;;;;;13.00;9.80;;;11.60;80.50;;;;;;4999986;28;20027;-67
2021/09/23 07:41:37;;;;;;;23.70;8.90;;;11.60;80.60;;;;;;5000149;28;20034;-67
2021/09/23 07:44:08;;;;;;;11.25;9.63;;;11.60;80.70;;;;;;4999342;28;20034;-67
2021/09/23 07:46:34;;;;;;;15.90;9.63;;;11.60;81.00;;;;;;4999079;28;20492;-67
2021/09/23 07:49:00;;;;;;;47.67;9.45;;;11.70;81.00;;;;;;5000728;28;20346;-67
2021/09/23 07:51:26;;;;;;;20.45;9.45;;;11.80;80.80;;;;;;4999731;28;20479;-68
2021/09/23 07:53:52;;;;;;;38.00;9.98;;;11.70;80.50;;;;;;4999491;28;20053;-67
2021/09/23 07:56:18;;;;;;;19.13;10.40;;;11.70;80.60;;;;;;4999614;28;20441;-67
2021/09/23 07:58:44;;;;;;;13.02;9.75;;;11.70;80.90;;;;;;4999760;28;20117;-68
2021/09/23 08:01:10;;;;;;;13.52;9.63;;;11.70;81.20;;;;;;4999349;28;20165;-68
2021/09/23 08:03:36;;;;;;;12.95;10.02;;;11.70;81.50;;;;;;4998021;28;20521;-68
2021/09/23 08:06:02;;;;;;;13.48;10.57;;;11.80;81.60;;;;;;4998562;28;20044;-68
2021/09/23 08:08:27;;;;;;;12.00;8.80;;;11.80;81.50;;;;;;4998286;28;20130;-67
2021/09/23 08:10:53;;;;;;;12.35;9.35;;;12.00;81.50;;;;;;4998827;28;20140;-67
2021/09/23 08:13:19;;;;;;;17.83;10.57;;;12.00;81.50;;;;;;4998857;28;20026;-68
2021/09/23 08:15:45;;;;;;;12.93;10.10;;;12.10;81.40;;;;;;4999096;28;20092;-67
2021/09/23 08:18:12;;;;;;;12.75;9.55;;;12.10;82.20;;;;;;4999042;28;20034;-67
2021/09/23 08:20:39;;;;;;;12.25;9.50;;;12.20;81.30;;;;;;4998224;28;20033;-69
2021/09/23 08:23:05;;;;;;;14.35;9.68;;;12.30;81.20;;;;;;4998375;28;20401;-67
2021/09/23 08:25:32;;;;;;;11.93;9.15;;;12.40;81.00;;;;;;4999626;28;20027;-69
2021/09/23 08:27:58;;;;;;;12.18;8.88;;;12.40;80.80;;;;;;4999017;28;20165;-67
2021/09/23 08:30:24;;;;;;;11.88;9.27;;;12.50;80.70;;;;;;4999037;28;20404;-68
2021/09/23 08:32:50;;;;;;;12.65;10.23;;;12.60;80.60;;;;;;4998607;28;20030;-68
2021/09/23 08:35:17;;;;;;;14.02;10.18;;;12.70;80.60;;;;;;4998586;28;20068;-68
2021/09/23 08:37:43;;;;;;;12.80;10.02;;;12.70;80.60;;;;;;4998480;28;20047;-68
2021/09/23 08:40:12;;;;;;;12.00;9.48;;;12.80;80.60;;;;;;4999141;28;20022;-67
2021/09/23 08:42:41;;;;;;;11.80;10.13;;;12.80;80.50;;;;;;4998701;28;20088;-67
2021/09/23 08:45:09;;;;;;;16.38;9.70;;;12.90;80.50;;;;;;4998559;28;20448;-67
2021/09/23 08:47:35;;;;;;;17.35;9.68;;;12.90;80.30;;;;;;4998046;28;20031;-68
2021/09/23 08:50:03;;;;;;;13.68;10.05;;;13.00;80.30;;;;;;4999973;28;20064;-68
2021/09/23 08:52:29;;;;;;;13.77;10.57;;;13.10;80.30;;;;;;4998315;28;20456;-68
2021/09/23 08:54:55;;;;;;;15.75;10.27;;;13.10;80.10;;;;;;4998756;28;20480;-67
2021/09/23 08:57:21;;;;;;;13.63;9.60;;;13.20;80.00;;;;;;4999855;28;20060;-68
2021/09/23 08:59:46;;;;;;;13.20;10.05;;;13.30;79.80;;;;;;5000674;28;20556;-69
2021/09/23 09:02:26;;;;;;;13.80;9.90;;;13.40;79.70;;;;;;4999185;28;20096;-68
2021/09/23 09:04:54;;;;;;;13.07;10.18;;;13.50;79.60;;;;;;4997824;28;20072;-68
2021/09/23 09:07:27;;;;;;;14.63;10.85;;;13.50;79.30;;;;;;4998840;28;20461;-68
2021/09/23 09:10:00;;;;;;;12.98;10.55;;;13.60;79.20;;;;;;4998138;28;20038;-68
2021/09/23 09:12:29;;;;;;;14.20;10.52;;;13.70;79.00;;;;;;4997697;28;20097;-69
2021/09/23 09:14:56;;;;;;;15.13;11.45;;;13.70;78.70;;;;;;5001274;28;20041;-68
2021/09/23 09:17:22;;;;;;;16.83;9.82;;;13.80;78.70;;;;;;5003402;28;20037;-68
2021/09/23 09:19:47;;;;;;;12.55;10.02;;;13.80;78.80;;;;;;5000896;28;20383;-68
2021/09/23 09:22:16;;;;;;;14.27;10.52;;;13.90;79.00;;;;;;5002022;28;20078;-69
2021/09/23 09:25:08;;;;;;;13.73;10.00;;;14.00;79.10;;;;;;5002085;28;20037;-68
2021/09/23 09:27:49;;;;;;;13.82;9.80;;;14.10;79.40;;;;;;5002344;28;20137;-69
2021/09/23 09:30:22;;;;;;;11.90;9.93;;;14.10;79.10;;;;;;5001661;28;20037;-69
2021/09/23 09:32:50;;;;;;;12.60;10.00;;;14.30;78.90;;;;;;5000568;28;20030;-69
2021/09/23 09:35:18;;;;;;;12.80;9.73;;;14.40;78.90;;;;;;5001526;28;20042;-68
2021/09/23 09:37:50;;;;;;;12.25;10.13;;;14.50;79.10;;;;;;5001894;28;20038;-69
2021/09/23 09:40:20;;;;;;;14.20;10.10;;;14.60;78.90;;;;;;5001636;28;20117;-69
2021/09/23 09:42:48;;;;;;;11.70;9.75;;;14.70;78.70;;;;;;5001053;28;20038;-69
2021/09/23 09:45:26;;;;;;;12.20;9.07;;;14.80;78.80;;;;;;5001558;28;20117;-69
2021/09/23 09:47:52;;;;;;;13.57;8.57;;;14.90;78.80;;;;;;5001530;28;20030;-68
2021/09/23 09:50:29;;;;;;;14.15;9.25;;;15.00;78.70;;;;;;5001777;28;20034;-68
2021/09/23 09:53:00;;;;;;;11.80;9.32;;;15.10;78.90;;;;;;5001224;28;20072;-71
2021/09/23 09:55:28;;;;;;;12.38;9.07;;;15.30;79.90;;;;;;5000381;28;20065;-68
2021/09/23 09:57:54;;;;;;;11.77;8.70;;;15.40;78.80;;;;;;5001083;28;20037;-69
2021/09/23 10:00:22;;;;;;;14.90;9.35;;;15.60;78.60;;;;;;5001376;28;20124;-68
2021/09/23 10:02:48;;;;;;;13.45;9.45;;;15.70;78.50;;;;;;5015212;28;20030;-68
2021/09/23 10:05:16;;;;;;;10.13;8.63;;;15.80;78.20;;;;;;5001904;28;20042;-68
2021/09/23 10:07:49;;;;;;;15.70;8.82;;;16.00;78.20;;;;;;5003190;28;20061;-68
2021/09/23 10:10:20;;;;;;;12.18;8.00;;;16.10;78.20;;;;;;5001927;28;20038;-69
2021/09/23 10:12:48;;;;;;;12.00;7.25;;;16.20;77.70;;;;;;4998713;28;20080;-68
2021/09/23 10:15:15;;;;;;;7.28;6.57;;;16.40;77.50;;;;;;5001190;28;20121;-69
2021/09/23 10:17:43;;;;;;;8.20;6.43;;;16.50;77.10;;;;;;5006445;28;20452;-68
2021/09/23 10:20:10;;;;;;;6.68;6.03;;;16.60;76.30;;;;;;5001733;28;20445;-69
2021/09/23 10:22:36;;;;;;;6.47;5.65;;;16.80;76.10;;;;;;5000192;28;20453;-68
2021/09/23 10:25:05;;;;;;;6.15;5.55;;;16.90;75.10;;;;;;5001193;28;20493;-68
2021/09/23 10:30:18;;;;;;;7.60;6.15;;;17.10;74.20;;;;;;5000343;28;20551;-69
2021/09/23 10:32:44;;;;;;;7.38;5.78;;;17.20;74.10;;;;;;5000088;28;20041;-69
2021/09/23 10:35:15;;;;;;;6.63;5.45;;;17.30;73.60;;;;;;5000236;28;20532;-68
2021/09/23 10:37:42;;;;;;;6.93;6.22;;;17.40;72.90;;;;;;5000499;28;20030;-67
2021/09/23 10:40:12;;;;;;;9.35;7.55;;;17.50;73.50;;;;;;4999726;28;20026;-68
2021/09/23 10:42:39;;;;;;;8.43;7.15;;;17.60;73.00;;;;;;5001530;28;20117;-70
2021/09/23 10:45:05;;;;;;;8.65;7.30;;;17.70;73.00;;;;;;5000468;28;20025;-68
2021/09/23 10:47:34;;;;;;;9.35;8.02;;;17.80;72.80;;;;;;5000738;28;20085;-68
2021/09/23 10:50:01;;;;;;;8.65;7.70;;;17.90;72.50;;;;;;5000128;28;20522;-68
2021/09/23 10:52:30;;;;;;;9.68;7.55;;;17.90;72.30;;;;;;5000012;28;20030;-69
2021/09/23 10:54:57;;;;;;;9.15;7.45;;;18.00;72.20;;;;;;5000257;28;20034;-69
2021/09/23 10:57:26;;;;;;;10.80;7.90;;;18.10;72.10;;;;;;5000906;28;20121;-69
2021/09/23 10:59:52;;;;;;;8.43;7.22;;;18.20;71.80;;;;;;4999810;28;20166;-69
2021/09/23 11:02:24;;;;;;;8.45;7.55;;;18.20;71.60;;;;;;4999887;28;20038;-68
2021/09/23 11:05:01;;;;;;;9.57;7.40;;;18.40;71.60;;;;;;4999463;28;20060;-68
2021/09/23 11:07:31;;;;;;;9.70;7.32;;;18.50;70.80;;;;;;5000083;28;20034;-68
2021/09/23 11:10:04;;;;;;;7.93;7.13;;;18.50;71.10;;;;;;5000232;28;20034;-68
2021/09/23 11:12:31;;;;;;;8.80;7.55;;;18.60;70.40;;;;;;4998829;28;20038;-68
2021/09/23 11:14:58;;;;;;;7.95;7.10;;;18.70;70.40;;;;;;4999470;28;20037;-68
2021/09/23 11:17:28;;;;;;;7.90;7.07;;;18.70;69.90;;;;;;4999560;28;20038;-68
2021/09/23 11:19:57;;;;;;;9.68;7.20;;;18.70;69.70;;;;;;4998909;28;20034;-68
2021/09/23 11:22:34;;;;;;;9.73;7.47;;;18.80;69.80;;;;;;5000794;28;20072;-68
2021/09/23 11:25:03;;;;;;;9.55;6.88;;;18.90;68.80;;;;;;4997820;28;20121;-68
2021/09/23 11:27:30;;;;;;;8.45;7.43;;;19.00;69.30;;;;;;4999765;28;20034;-68
2021/09/23 11:29:55;;;;;;;12.35;7.03;;;19.00;69.20;;;;;;4999725;28;20030;-68
2021/09/23 11:32:22;;;;;;;9.55;7.32;;;19.00;68.90;;;;;;5005072;28;20053;-68
2021/09/23 11:34:57;;;;;;;9.50;6.93;;;19.20;68.70;;;;;;4999384;28;20042;-69
2021/09/23 11:37:30;;;;;;;;;;;19.20;67.80;;;;;;5001221;28;20034;-70
2021/09/23 11:39:57;;;;;;;8.15;6.53;;;19.30;68.80;;;;;;5000362;28;20344;-69
2021/09/23 11:42:27;;;;;;;9.10;6.63;;;19.40;68.50;;;;;;4998977;28;20038;-69
2021/09/23 11:44:52;;;;;;;7.63;6.47;;;19.40;68.30;;;;;;4999998;28;20034;-69
2021/09/23 11:47:21;;;;;;;7.97;6.85;;;19.50;69.10;;;;;;4999081;28;20947;-68
2021/09/23 11:49:53;;;;;;;8.27;6.93;;;19.60;68.00;;;;;;4999942;28;20087;-68
2021/09/23 11:52:33;;;;;;;7.80;6.93;;;19.60;67.50;;;;;;5014065;28;20087;-69
2021/09/23 11:55:00;;;;;;;9.50;7.38;;;19.70;67.60;;;;;;4998327;28;20092;-68
2021/09/23 11:57:27;;;;;;;8.45;6.47;;;19.70;67.80;;;;;;5000055;28;20115;-69
2021/09/23 11:59:59;;;;;;;10.85;7.38;;;19.70;67.30;;;;;;4999515;28;20117;-68
2021/09/23 12:02:25;;;;;;;8.20;6.13;;;19.80;66.90;;;;;;4999122;28;20045;-68
2021/09/23 12:04:58;;;;;;;7.38;6.32;;;19.80;67.40;;;;;;4999678;28;20034;-69
2021/09/23 12:07:26;;;;;;;8.82;6.32;;;19.90;67.10;;;;;;4999765;28;20041;-68
2021/09/23 12:10:14;;;;;;;8.73;6.72;;;20.00;67.20;;;;;;5013100;28;20034;-69
2021/09/23 12:12:41;;;;;;;7.68;6.55;;;20.00;66.40;;;;;;4998711;28;20116;-68
2021/09/23 12:15:07;;;;;;;10.30;7.38;;;20.00;66.60;;;;;;5004867;28;20579;-68
2021/09/23 12:17:33;;;;;;;7.68;6.65;;;20.10;66.00;;;;;;5000143;28;20061;-69
2021/09/23 12:20:01;;;;;;;7.40;6.03;;;20.10;66.10;;;;;;4999288;28;20580;-69
2021/09/23 12:22:35;;;;;;;9.48;6.68;;;20.10;66.20;;;;;;4999144;28;20042;-68
2021/09/23 12:25:15;;;;;;;7.78;6.18;;;20.20;65.70;;;;;;4999199;28;20421;-69
2021/09/23 12:27:41;;;;;;;8.40;6.50;;;20.20;65.90;;;;;;5000306;28;20601;-68
2021/09/23 12:30:07;;;;;;;9.60;6.45;;;20.20;65.80;;;;;;4999781;28;20129;-68
2021/09/23 12:32:34;;;;;;;10.68;6.28;;;20.20;65.70;;;;;;4998823;28;20505;-68
2021/09/23 12:35:19;;;;;;;7.90;6.82;;;20.30;65.70;;;;;;4998768;28;20038;-68
2021/09/23 12:37:46;;;;;;;7.43;6.47;;;20.30;65.20;;;;;;5000454;28;20496;-68
2021/09/23 12:40:13;;;;;;;7.78;6.03;;;20.30;65.10;;;;;;4999590;28;20351;-68
2021/09/23 12:42:40;;;;;;;8.00;6.63;;;20.30;65.30;;;;;;4998885;28;20536;-68
2021/09/23 12:45:10;;;;;;;7.40;6.00;;;20.40;65.20;;;;;;4998718;28;20049;-69